Time;durP1;ratioP1;P1;durP2;ratioP2;P2;SDS_P1;SDS_P2;PMS_P1;PMS_P2;Temp;Humidity;BMP_temperature;BMP_pressure;BME280_temperature;BME280_humidity;BME280_pressure;Samples;Min_cycle;Max_cycle;Signal;HPM_P1;HPM_P2
2023/12/19 00:00:58;;;;;;;6.00;5.50;;;;;;;;;;5074824;28;20457;-59
2023/12/19 00:03:25;;;;;;;6.40;5.80;;;;;;;;;;5074654;28;20443;-59
2023/12/19 00:05:53;;;;;;;6.93;5.40;;;;;;;;;;5074905;28;20505;-59
2023/12/19 00:08:20;;;;;;;5.30;4.90;;;;;;;;;;5074816;28;20539;-59
2023/12/19 00:10:47;;;;;;;5.20;4.60;;;;;;;;;;5074642;28;20449;-59
2023/12/19 00:13:14;;;;;;;4.40;4.10;;;;;;;;;;5074544;28;20455;-59
2023/12/19 00:15:41;;;;;;;9.13;4.70;;;;;;;;;;5074493;28;20878;-59
2023/12/19 00:18:08;;;;;;;4.70;4.30;;;;;;;;;;5074438;28;20447;-59
2023/12/19 00:20:35;;;;;;;4.90;4.40;;;;;;;;;;5074543;28;20447;-59
2023/12/19 00:23:03;;;;;;;4.53;4.13;;;;;;;;;;5074666;28;20538;-59
2023/12/19 00:25:31;;;;;;;5.70;4.90;;;;;;;;;;5074416;28;20922;-59
2023/12/19 00:27:59;;;;;;;4.83;4.43;;;;;;;;;;5074425;28;20443;-59
2023/12/19 00:30:26;;;;;;;4.13;3.87;;;;;;;;;;5074245;28;20458;-59
2023/12/19 00:32:53;;;;;;;9.40;4.60;;;;;;;;;;5074524;28;20462;-59
2023/12/19 00:35:20;;;;;;;5.40;4.90;;;;;;;;;;5074368;28;20530;-59
2023/12/19 00:37:47;;;;;;;4.67;4.27;;;;;;;;;;5074118;28;20965;-59
2023/12/19 00:40:15;;;;;;;4.40;4.00;;;;;;;;;;5074177;28;20534;-59
2023/12/19 00:42:42;;;;;;;5.03;3.83;;;;;;;;;;5074095;28;20439;-59
2023/12/19 00:45:10;;;;;;;6.67;5.20;;;;;;;;;;5073875;28;20483;-59
2023/12/19 00:47:38;;;;;;;5.00;4.37;;;;;;;;;;5074162;28;20539;-59
2023/12/19 00:50:06;;;;;;;4.97;4.50;;;;;;;;;;5074102;28;20442;-59
2023/12/19 00:52:33;;;;;;;4.60;4.07;;;;;;;;;;5073938;28;20439;-59
2023/12/19 00:55:00;;;;;;;4.97;4.50;;;;;;;;;;5073698;28;20909;-59
2023/12/19 00:57:28;;;;;;;5.67;4.77;;;;;;;;;;5073641;28;20955;-60
2023/12/19 00:59:55;;;;;;;5.07;3.77;;;;;;;;;;5073951;28;20436;-59
2023/12/19 01:02:22;;;;;;;4.67;4.27;;;;;;;;;;5073209;28;20439;-59
2023/12/19 01:04:49;;;;;;;5.03;4.27;;;;;;;;;;5073655;28;20889;-59
2023/12/19 01:07:16;;;;;;;4.27;3.87;;;;;;;;;;5073716;28;20850;-59
2023/12/19 01:09:43;;;;;;;4.70;4.20;;;;;;;;;;5073557;28;20470;-59
2023/12/19 01:12:10;;;;;;;4.33;3.93;;;;;;;;;;5073417;28;20443;-59
2023/12/19 01:14:38;;;;;;;5.40;4.33;;;;;;;;;;5073670;28;20530;-59
2023/12/19 01:17:05;;;;;;;4.40;4.00;;;;;;;;;;5073793;28;20530;-59
2023/12/19 01:19:32;;;;;;;4.13;3.80;;;;;;;;;;5073399;28;20445;-59
2023/12/19 01:21:59;;;;;;;4.67;4.20;;;;;;;;;;5073440;28;20478;-59
2023/12/19 01:24:26;;;;;;;4.33;3.93;;;;;;;;;;5073171;28;20471;-59
2023/12/19 01:26:53;;;;;;;4.53;4.17;;;;;;;;;;5073604;28;20455;-59
2023/12/19 01:29:20;;;;;;;4.47;3.83;;;;;;;;;;5073381;28;20447;-59
2023/12/19 01:31:48;;;;;;;5.20;4.57;;;;;;;;;;5073200;28;20447;-59
2023/12/19 01:34:15;;;;;;;4.20;3.63;;;;;;;;;;5073140;28;20538;-59
2023/12/19 01:36:43;;;;;;;4.40;4.00;;;;;;;;;;5073129;28;20447;-59
2023/12/19 01:39:10;;;;;;;5.23;4.37;;;;;;;;;;5072892;28;20451;-59
2023/12/19 01:41:37;;;;;;;4.03;3.73;;;;;;;;;;5073059;28;20479;-59
2023/12/19 01:44:04;;;;;;;4.83;4.30;;;;;;;;;;5072911;28;20444;-59
2023/12/19 01:46:31;;;;;;;4.20;3.50;;;;;;;;;;5072908;28;20538;-60
2023/12/19 01:49:00;;;;;;;4.90;4.07;;;;;;;;;;5072873;28;20443;-59
2023/12/19 01:51:27;;;;;;;5.00;4.50;;;;;;;;;;5072908;28;20990;-59
2023/12/19 01:53:54;;;;;;;3.63;3.33;;;;;;;;;;5072585;28;20439;-59
2023/12/19 01:56:23;;;;;;;13.87;4.80;;;;;;;;;;5072582;28;20472;-59
2023/12/19 01:58:50;;;;;;;5.17;4.33;;;;;;;;;;5072889;28;20818;-59
2023/12/19 02:01:18;;;;;;;4.40;4.00;;;;;;;;;;5072763;28;20475;-59
2023/12/19 02:03:46;;;;;;;4.30;3.93;;;;;;;;;;5072707;28;20530;-59
2023/12/19 02:06:15;;;;;;;4.80;4.30;;;;;;;;;;5072546;28;20486;-59
2023/12/19 02:08:42;;;;;;;3.53;3.23;;;;;;;;;;5072826;28;20451;-59
2023/12/19 02:11:09;;;;;;;3.50;3.20;;;;;;;;;;5072709;28;20535;-59
2023/12/19 02:13:36;;;;;;;4.27;3.87;;;;;;;;;;5072145;28;20539;-59
2023/12/19 02:16:03;;;;;;;3.73;3.43;;;;;;;;;;5072205;28;20483;-59
2023/12/19 02:18:30;;;;;;;4.30;3.30;;;;;;;;;;5072785;28;20452;-59
2023/12/19 02:20:57;;;;;;;4.30;3.90;;;;;;;;;;5072341;28;20481;-59
2023/12/19 02:23:25;;;;;;;5.40;4.93;;;;;;;;;;5072611;28;20490;-59
2023/12/19 02:25:52;;;;;;;4.30;3.90;;;;;;;;;;5072387;28;20918;-59
2023/12/19 02:28:19;;;;;;;6.17;4.20;;;;;;;;;;5072422;28;20897;-59
2023/12/19 02:30:46;;;;;;;3.80;3.50;;;;;;;;;;5072461;28;20443;-59
2023/12/19 02:33:12;;;;;;;3.43;3.13;;;;;;;;;;5072303;28;20537;-59
2023/12/19 02:35:39;;;;;;;4.00;3.70;;;;;;;;;;5072264;28;20516;-59
2023/12/19 02:38:06;;;;;;;3.57;3.27;;;;;;;;;;5072407;28;20950;-59
2023/12/19 02:40:34;;;;;;;4.83;3.90;;;;;;;;;;5072299;28;20471;-59
2023/12/19 02:43:01;;;;;;;4.03;3.73;;;;;;;;;;5072286;28;20811;-59
2023/12/19 02:45:31;;;;;;;5.33;4.10;;;;;;;;;;5072057;28;20483;-59
2023/12/19 02:47:58;;;;;;;4.10;3.70;;;;;;;;;;5072070;28;20447;-59
2023/12/19 02:50:25;;;;;;;4.00;3.60;;;;;;;;;;5072316;28;20454;-59
2023/12/19 02:52:52;;;;;;;4.30;3.90;;;;;;;;;;5072236;28;20935;-59
2023/12/19 02:55:19;;;;;;;3.90;3.60;;;;;;;;;;5071857;28;20471;-59
2023/12/19 02:57:47;;;;;;;3.33;3.03;;;;;;;;;;5072080;28;20530;-59
2023/12/19 03:00:15;;;;;;;3.80;3.50;;;;;;;;;;5072099;28;20564;-59
2023/12/19 03:02:44;;;;;;;4.07;3.30;;;;;;;;;;5071926;28;20443;-59
2023/12/19 03:05:11;;;;;;;4.30;3.50;;;;;;;;;;5072105;28;20483;-59
2023/12/19 03:07:38;;;;;;;4.40;4.00;;;;;;;;;;5072140;28;20517;-59
2023/12/19 03:10:07;;;;;;;4.00;3.20;;;;;;;;;;5071849;28;20458;-59
2023/12/19 03:12:34;;;;;;;4.33;4.00;;;;;;;;;;5071950;28;20795;-59
2023/12/19 03:15:02;;;;;;;7.60;3.80;;;;;;;;;;5071770;28;20503;-60
2023/12/19 03:17:29;;;;;;;4.20;3.80;;;;;;;;;;5072074;28;20459;-59
2023/12/19 03:19:56;;;;;;;3.83;3.53;;;;;;;;;;5071942;28;20874;-59
2023/12/19 03:22:23;;;;;;;3.47;3.20;;;;;;;;;;5071987;28;20530;-60
2023/12/19 03:24:50;;;;;;;4.30;3.90;;;;;;;;;;5071758;28;20795;-59
2023/12/19 03:27:17;;;;;;;3.63;3.33;;;;;;;;;;5075574;28;20526;-59
2023/12/19 03:29:44;;;;;;;4.37;3.97;;;;;;;;;;5075327;28;20475;-59
2023/12/19 03:32:12;;;;;;;3.53;3.23;;;;;;;;;;5075585;28;20470;-59
2023/12/19 03:34:39;;;;;;;4.77;3.60;;;;;;;;;;5075521;28;20452;-59
2023/12/19 03:37:06;;;;;;;3.23;3.03;;;;;;;;;;5075374;28;20492;-59
2023/12/19 03:39:33;;;;;;;3.73;3.43;;;;;;;;;;5075237;28;20451;-59
2023/12/19 03:42:00;;;;;;;4.20;3.87;;;;;;;;;;5075193;28;20479;-59
2023/12/19 03:44:27;;;;;;;4.07;3.77;;;;;;;;;;5075621;28;20534;-59
2023/12/19 03:46:53;;;;;;;4.07;3.73;;;;;;;;;;5075246;28;20632;-59
2023/12/19 03:49:22;;;;;;;4.23;3.83;;;;;;;;;;5075105;28;20534;-59
2023/12/19 03:51:49;;;;;;;3.07;2.70;;;;;;;;;;5075324;28;21025;-59
2023/12/19 03:54:16;;;;;;;4.20;3.80;;;;;;;;;;5075165;28;20729;-59
2023/12/19 03:56:43;;;;;;;3.53;3.30;;;;;;;;;;5075035;28;20467;-59
2023/12/19 03:59:11;;;;;;;3.70;3.37;;;;;;;;;;5075181;28;20439;-59
2023/12/19 04:01:44;;;;;;;3.63;3.43;;;;;;;;;;5074920;28;20469;-59
2023/12/19 04:04:11;;;;;;;4.90;3.93;;;;;;;;;;5074968;28;20534;-59
2023/12/19 04:06:42;;;;;;;6.93;4.10;;;;;;;;;;5074718;28;20519;-59
2023/12/19 04:09:09;;;;;;;4.47;4.07;;;;;;;;;;5074657;28;20439;-59
2023/12/19 04:11:36;;;;;;;4.10;3.70;;;;;;;;;;5074897;28;20527;-59
2023/12/19 04:14:03;;;;;;;4.40;4.00;;;;;;;;;;5074746;28;20534;-59
2023/12/19 04:16:30;;;;;;;5.57;4.17;;;;;;;;;;5074704;28;20447;-59
2023/12/19 04:18:57;;;;;;;5.27;3.67;;;;;;;;;;5074529;28;20526;-59
2023/12/19 04:21:24;;;;;;;4.57;4.17;;;;;;;;;;5074579;28;20451;-59
2023/12/19 04:23:52;;;;;;;4.00;3.70;;;;;;;;;;5074569;28;20475;-59
2023/12/19 04:26:20;;;;;;;4.70;4.10;;;;;;;;;;5074362;28;20522;-59
2023/12/19 04:28:47;;;;;;;4.70;3.90;;;;;;;;;;5074586;28;20455;-59
2023/12/19 04:31:13;;;;;;;4.00;3.70;;;;;;;;;;5074475;28;20456;-59
2023/12/19 04:33:40;;;;;;;4.10;3.80;;;;;;;;;;5074251;28;20454;-59
2023/12/19 04:36:09;;;;;;;4.37;3.97;;;;;;;;;;5074283;28;20986;-59
2023/12/19 04:38:36;;;;;;;4.53;4.17;;;;;;;;;;5073252;28;20902;-59
2023/12/19 04:41:05;;;;;;;4.57;3.90;;;;;;;;;;5074329;28;20791;-59
2023/12/19 04:43:32;;;;;;;4.30;3.70;;;;;;;;;;5074278;28;20747;-59
2023/12/19 04:45:59;;;;;;;4.17;3.70;;;;;;;;;;5074112;28;20479;-59
2023/12/19 04:48:26;;;;;;;3.70;3.40;;;;;;;;;;5073988;28;20535;-59
2023/12/19 04:50:53;;;;;;;3.60;3.30;;;;;;;;;;5073857;28;21140;-60
2023/12/19 04:53:20;;;;;;;3.33;3.03;;;;;;;;;;5074018;28;20443;-59
2023/12/19 04:55:47;;;;;;;3.70;3.40;;;;;;;;;;5073907;28;20812;-59
2023/12/19 04:58:15;;;;;;;4.00;3.57;;;;;;;;;;5073913;28;20447;-59
2023/12/19 05:00:42;;;;;;;3.73;3.33;;;;;;;;;;5073634;28;20534;-59
2023/12/19 05:03:09;;;;;;;3.60;3.30;;;;;;;;;;5073689;28;20443;-59
2023/12/19 05:05:36;;;;;;;3.60;3.30;;;;;;;;;;5073474;28;20475;-59
2023/12/19 05:08:03;;;;;;;3.63;3.33;;;;;;;;;;5073753;28;20443;-59
2023/12/19 05:10:30;;;;;;;3.87;3.57;;;;;;;;;;5073645;28;20478;-59
2023/12/19 05:12:57;;;;;;;3.70;3.40;;;;;;;;;;5073394;28;21014;-59
2023/12/19 05:15:25;;;;;;;3.87;3.57;;;;;;;;;;5073483;28;20451;-59
2023/12/19 05:17:52;;;;;;;3.80;3.50;;;;;;;;;;5073478;28;20443;-60
2023/12/19 05:20:19;;;;;;;7.13;4.43;;;;;;;;;;5073482;28;20538;-59
2023/12/19 05:22:46;;;;;;;5.50;4.43;;;;;;;;;;5073562;28;20447;-59
2023/12/19 05:25:13;;;;;;;3.77;3.47;;;;;;;;;;5073261;28;20798;-59
2023/12/19 05:27:43;;;;;;;4.57;3.53;;;;;;;;;;5073272;28;20517;-59
2023/12/19 05:30:11;;;;;;;4.13;3.83;;;;;;;;;;5073138;28;20443;-59
2023/12/19 05:32:39;;;;;;;4.17;3.77;;;;;;;;;;5072947;28;20891;-59
2023/12/19 05:35:07;;;;;;;4.57;4.17;;;;;;;;;;5073227;28;20504;-59
2023/12/19 05:37:34;;;;;;;4.30;3.77;;;;;;;;;;5073156;28;20471;-59
2023/12/19 05:40:01;;;;;;;4.47;4.07;;;;;;;;;;5072948;28;20536;-59
2023/12/19 05:42:28;;;;;;;4.53;4.13;;;;;;;;;;5073003;28;20443;-59
2023/12/19 05:44:55;;;;;;;4.63;4.10;;;;;;;;;;5073029;28;20501;-60
2023/12/19 05:47:22;;;;;;;4.47;4.10;;;;;;;;;;5073082;28;20839;-59
2023/12/19 05:49:50;;;;;;;4.60;4.20;;;;;;;;;;5072748;28;20450;-59
2023/12/19 05:52:17;;;;;;;5.50;4.97;;;;;;;;;;5072891;28;20454;-59
2023/12/19 05:54:44;;;;;;;7.00;4.80;;;;;;;;;;5072629;28;20554;-59
2023/12/19 05:57:11;;;;;;;5.17;4.67;;;;;;;;;;5072843;28;20538;-59
2023/12/19 05:59:38;;;;;;;4.87;4.20;;;;;;;;;;5072541;28;20454;-59
2023/12/19 06:02:06;;;;;;;4.77;4.37;;;;;;;;;;5072600;28;20532;-59
2023/12/19 06:04:35;;;;;;;6.53;4.53;;;;;;;;;;5072835;28;20483;-59
2023/12/19 06:07:03;;;;;;;5.10;4.60;;;;;;;;;;5073242;28;20479;-59
2023/12/19 06:09:31;;;;;;;6.17;5.00;;;;;;;;;;5073093;28;20447;-59
2023/12/19 06:11:58;;;;;;;5.47;4.57;;;;;;;;;;5072947;28;20887;-59
2023/12/19 06:14:25;;;;;;;5.70;4.80;;;;;;;;;;5072872;28;20653;-59
2023/12/19 06:16:52;;;;;;;5.50;4.70;;;;;;;;;;5073082;28;20537;-59
2023/12/19 06:19:19;;;;;;;4.53;4.13;;;;;;;;;;5073023;28;20444;-59
2023/12/19 06:21:46;;;;;;;5.00;4.50;;;;;;;;;;5072933;28;20455;-59
2023/12/19 06:24:14;;;;;;;5.03;4.27;;;;;;;;;;5072943;28;20535;-59
2023/12/19 06:26:41;;;;;;;4.33;4.03;;;;;;;;;;5072750;28;20842;-59
2023/12/19 06:29:09;;;;;;;6.43;4.70;;;;;;;;;;5072746;28;20475;-59
2023/12/19 06:31:43;;;;;;;11.90;4.93;;;;;;;;;;5072942;28;20462;-59
2023/12/19 06:34:09;;;;;;;5.10;4.60;;;;;;;;;;5072919;28;20799;-59
2023/12/19 06:36:38;;;;;;;6.00;5.40;;;;;;;;;;5072798;28;20535;-59
2023/12/19 06:39:06;;;;;;;6.97;5.13;;;;;;;;;;5072692;28;20449;-59
2023/12/19 06:41:34;;;;;;;5.87;5.33;;;;;;;;;;5072523;28;20497;-60
2023/12/19 06:44:01;;;;;;;5.90;5.30;;;;;;;;;;5072833;28;20458;-59
2023/12/19 06:46:28;;;;;;;5.07;4.57;;;;;;;;;;5072669;28;20834;-59
2023/12/19 06:48:56;;;;;;;5.27;4.87;;;;;;;;;;5072635;28;20539;-59
2023/12/19 06:51:23;;;;;;;5.30;4.80;;;;;;;;;;5072577;28;21044;-59
2023/12/19 06:53:51;;;;;;;5.10;4.30;;;;;;;;;;5072261;28;20451;-59
2023/12/19 06:56:18;;;;;;;5.80;5.20;;;;;;;;;;5072251;28;20562;-59
2023/12/19 06:58:47;;;;;;;6.97;6.37;;;;;;;;;;5072653;28;20882;-59
2023/12/19 07:01:14;;;;;;;6.50;5.80;;;;;;;;;;5074758;28;20485;-60
2023/12/19 07:03:42;;;;;;;7.47;5.47;;;;;;;;;;5076449;28;20805;-59
2023/12/19 07:06:09;;;;;;;6.37;5.20;;;;;;;;;;5076384;28;20473;-59
2023/12/19 07:08:36;;;;;;;5.77;5.27;;;;;;;;;;5076218;28;20443;-59
2023/12/19 07:11:03;;;;;;;6.00;5.47;;;;;;;;;;5076525;28;20544;-59
2023/12/19 07:13:31;;;;;;;6.20;5.40;;;;;;;;;;5076434;28;20450;-59
2023/12/19 07:15:59;;;;;;;7.83;7.13;;;;;;;;;;5076226;28;20486;-59
2023/12/19 07:18:26;;;;;;;6.80;5.83;;;;;;;;;;5076151;28;20443;-59
2023/12/19 07:20:53;;;;;;;8.03;5.73;;;;;;;;;;5076319;28;20471;-59
2023/12/19 07:23:19;;;;;;;6.70;6.03;;;;;;;;;;5076244;28;20482;-59
2023/12/19 07:25:46;;;;;;;6.93;6.23;;;;;;;;;;5075944;28;20450;-59
2023/12/19 07:28:15;;;;;;;11.77;5.63;;;;;;;;;;5076096;28;20450;-60
2023/12/19 07:30:42;;;;;;;7.00;6.10;;;;;;;;;;5076049;28;20543;-59
2023/12/19 07:33:10;;;;;;;7.10;6.50;;;;;;;;;;5076139;28;20431;-59
2023/12/19 07:35:37;;;;;;;6.93;6.13;;;;;;;;;;5075698;28;20536;-59
2023/12/19 07:38:04;;;;;;;6.63;5.83;;;;;;;;;;5075886;28;20443;-59
2023/12/19 07:40:31;;;;;;;9.00;6.67;;;;;;;;;;5075840;28;20446;-59
2023/12/19 07:42:58;;;;;;;7.57;6.77;;;;;;;;;;5075707;28;20445;-59
2023/12/19 07:45:25;;;;;;;6.90;6.20;;;;;;;;;;5075648;28;20527;-59
2023/12/19 07:47:52;;;;;;;6.90;5.70;;;;;;;;;;5075343;28;20490;-60
2023/12/19 07:50:21;;;;;;;6.83;6.03;;;;;;;;;;5075519;28;20873;-59
2023/12/19 07:52:48;;;;;;;6.27;5.67;;;;;;;;;;5075674;28;20478;-60
2023/12/19 07:55:15;;;;;;;5.40;4.83;;;;;;;;;;5075365;28;21057;-60
2023/12/19 07:57:41;;;;;;;7.60;5.83;;;;;;;;;;5075451;28;20443;-61
2023/12/19 08:00:09;;;;;;;5.43;4.93;;;;;;;;;;5075368;28;20526;-60
2023/12/19 08:02:36;;;;;;;5.97;5.40;;;;;;;;;;5074795;28;20443;-60
2023/12/19 08:05:04;;;;;;;6.07;5.10;;;;;;;;;;5074843;28;20446;-62
2023/12/19 08:07:32;;;;;;;5.97;5.27;;;;;;;;;;5075126;28;20479;-63
2023/12/19 08:09:59;;;;;;;8.87;5.83;;;;;;;;;;5075155;28;20443;-61
2023/12/19 08:12:27;;;;;;;12.23;10.90;;;;;;;;;;5073908;28;20447;-62
2023/12/19 08:14:54;;;;;;;6.77;6.07;;;;;;;;;;5075197;28;20954;-61
2023/12/19 08:17:20;;;;;;;5.97;5.47;;;;;;;;;;5075043;28;20443;-61
2023/12/19 08:19:47;;;;;;;6.30;5.60;;;;;;;;;;5074948;28;20976;-61
2023/12/19 08:22:14;;;;;;;8.07;5.87;;;;;;;;;;5075351;28;20451;-61
2023/12/19 08:24:42;;;;;;;5.47;4.97;;;;;;;;;;5075025;28;20443;-63
2023/12/19 08:27:09;;;;;;;6.40;5.57;;;;;;;;;;5075092;28;20479;-60
2023/12/19 08:29:36;;;;;;;6.50;5.90;;;;;;;;;;5074779;28;20527;-60
2023/12/19 08:32:04;;;;;;;12.33;5.90;;;;;;;;;;5074951;28;20543;-62
2023/12/19 08:34:30;;;;;;;6.33;4.50;;;;;;;;;;5074759;28;20470;-60
2023/12/19 08:36:57;;;;;;;5.90;5.13;;;;;;;;;;5074622;28;20985;-60
2023/12/19 08:39:24;;;;;;;5.73;5.23;;;;;;;;;;5074495;28;20439;-60
2023/12/19 08:41:53;;;;;;;10.27;6.10;;;;;;;;;;5074610;28;20906;-62
2023/12/19 08:44:20;;;;;;;6.17;5.60;;;;;;;;;;5074530;28;20534;-62
2023/12/19 08:46:46;;;;;;;6.13;5.53;;;;;;;;;;5074653;28;20470;-60
2023/12/19 08:49:13;;;;;;;6.63;5.73;;;;;;;;;;5074844;28;20454;-62
2023/12/19 08:51:46;;;;;;;6.97;5.43;;;;;;;;;;5074608;28;20444;-61
2023/12/19 08:54:13;;;;;;;9.70;5.63;;;;;;;;;;5074419;28;20447;-61
2023/12/19 08:56:40;;;;;;;7.77;5.80;;;;;;;;;;5074232;28;20558;-61
2023/12/19 08:59:08;;;;;;;6.07;5.47;;;;;;;;;;5074460;28;20543;-61
2023/12/19 09:01:35;;;;;;;5.97;5.37;;;;;;;;;;5074119;28;20942;-61
2023/12/19 09:04:02;;;;;;;5.93;5.43;;;;;;;;;;5074354;28;20443;-61
2023/12/19 09:06:29;;;;;;;6.13;5.30;;;;;;;;;;5074143;28;20444;-61
2023/12/19 09:08:56;;;;;;;6.03;5.40;;;;;;;;;;5074033;28;20469;-61
2023/12/19 09:11:23;;;;;;;6.57;5.80;;;;;;;;;;5073976;28;20486;-61
2023/12/19 09:13:50;;;;;;;7.97;6.13;;;;;;;;;;5073698;28;20440;-61
2023/12/19 09:16:18;;;;;;;7.50;6.70;;;;;;;;;;5071021;28;20445;-61
2023/12/19 09:18:45;;;;;;;6.63;5.77;;;;;;;;;;5073576;28;20526;-61
2023/12/19 09:21:12;;;;;;;7.07;6.37;;;;;;;;;;5073410;28;20525;-61
2023/12/19 09:23:40;;;;;;;6.50;5.80;;;;;;;;;;5073047;28;20931;-61
2023/12/19 09:26:07;;;;;;;10.20;5.97;;;;;;;;;;5073720;28;20444;-61
2023/12/19 09:28:35;;;;;;;10.80;7.50;;;;;;;;;;5073806;28;20892;-61
2023/12/19 09:31:02;;;;;;;7.47;6.77;;;;;;;;;;5073928;28;20802;-61
2023/12/19 09:33:30;;;;;;;7.27;6.57;;;;;;;;;;5073679;28;20475;-61
2023/12/19 09:35:57;;;;;;;7.43;6.40;;;;;;;;;;5073648;28;20543;-61
2023/12/19 09:38:24;;;;;;;6.53;5.83;;;;;;;;;;5073507;28;20453;-61
2023/12/19 09:40:51;;;;;;;9.27;7.10;;;;;;;;;;5073718;28;20866;-59
2023/12/19 09:43:18;;;;;;;11.23;7.40;;;;;;;;;;5073595;28;20966;-59
2023/12/19 09:45:47;;;;;;;9.07;6.50;;;;;;;;;;5071213;28;20455;-59
2023/12/19 09:48:15;;;;;;;7.77;6.77;;;;;;;;;;5073184;28;20483;-60
2023/12/19 09:50:44;;;;;;;7.10;6.40;;;;;;;;;;5073161;28;20551;-60
2023/12/19 09:53:11;;;;;;;6.67;6.07;;;;;;;;;;5058626;28;20536;-60
2023/12/19 09:55:43;;;;;;;7.53;6.73;;;;;;;;;;5052144;28;20512;-59
2023/12/19 09:58:11;;;;;;;7.57;6.87;;;;;;;;;;5052938;28;20943;-60
2023/12/19 10:00:39;;;;;;;9.50;7.07;;;;;;;;;;5051874;28;20966;-59
2023/12/19 10:03:06;;;;;;;8.40;7.43;;;;;;;;;;5051847;28;20448;-59
2023/12/19 10:05:33;;;;;;;7.57;6.83;;;;;;;;;;5053001;28;20448;-60
2023/12/19 10:08:01;;;;;;;9.70;7.90;;;;;;;;;;5053200;28;20571;-60
2023/12/19 10:10:43;;;;;;;9.50;7.20;;;;;;;;;;5052953;28;20445;-60
2023/12/19 10:13:10;;;;;;;8.60;7.10;;;;;;;;;;5052674;28;20523;-60
2023/12/19 10:15:37;;;;;;;9.70;8.13;;;;;;;;;;5052686;28;20527;-60
2023/12/19 10:18:06;;;;;;;12.63;8.60;;;;;;;;;;5052831;28;20463;-59
2023/12/19 10:20:33;;;;;;;9.93;7.97;;;;;;;;;;5052725;28;20954;-58
2023/12/19 10:23:04;;;;;;;8.70;7.47;;;;;;;;;;5052572;28;20940;-59
2023/12/19 10:25:32;;;;;;;9.77;8.13;;;;;;;;;;5052794;28;20442;-59
2023/12/19 10:28:07;;;;;;;9.13;8.23;;;;;;;;;;5052612;28;20480;-59
2023/12/19 10:30:34;;;;;;;11.03;9.50;;;;;;;;;;5052480;28;20455;-59
2023/12/19 10:33:01;;;;;;;9.13;8.00;;;;;;;;;;5052789;28;20532;-61
2023/12/19 10:35:36;;;;;;;9.17;7.80;;;;;;;;;;5051968;28;20531;-61
2023/12/19 10:38:04;;;;;;;10.57;9.00;;;;;;;;;;5052691;28;20535;-59
2023/12/19 10:40:31;;;;;;;10.67;9.40;;;;;;;;;;5052642;28;20476;-59
2023/12/19 10:42:58;;;;;;;9.47;8.30;;;;;;;;;;5052489;28;20892;-61
2023/12/19 10:45:26;;;;;;;10.23;9.03;;;;;;;;;;5066555;28;20526;-61
2023/12/19 10:47:53;;;;;;;12.67;9.10;;;;;;;;;;5072641;28;20479;-61
2023/12/19 10:50:20;;;;;;;11.90;9.30;;;;;;;;;;5072661;28;20534;-60
2023/12/19 10:52:48;;;;;;;10.63;8.87;;;;;;;;;;5072610;28;20841;-60
2023/12/19 10:55:21;;;;;;;11.30;9.20;;;;;;;;;;5072512;28;20475;-60
2023/12/19 10:57:49;;;;;;;12.33;9.30;;;;;;;;;;5072690;28;21045;-60
2023/12/19 11:00:21;;;;;;;12.60;9.60;;;;;;;;;;5072515;28;20448;-60
2023/12/19 11:02:53;;;;;;;28.33;17.27;;;;;;;;;;5072419;28;20455;-60
2023/12/19 11:05:24;;;;;;;12.40;10.10;;;;;;;;;;5072417;28;20447;-59
2023/12/19 11:07:52;;;;;;;12.97;10.40;;;;;;;;;;5072732;28;20501;-60
2023/12/19 11:10:22;;;;;;;15.90;10.80;;;;;;;;;;5072294;28;20450;-60
2023/12/19 11:12:50;;;;;;;12.90;10.50;;;;;;;;;;5072307;28;20519;-59
2023/12/19 11:15:17;;;;;;;11.90;9.70;;;;;;;;;;5072298;28;20538;-60
2023/12/19 11:17:50;;;;;;;14.90;10.13;;;;;;;;;;5072203;28;20454;-59
2023/12/19 11:20:20;;;;;;;13.90;10.50;;;;;;;;;;5071960;28;20454;-59
2023/12/19 11:22:52;;;;;;;12.57;9.77;;;;;;;;;;5072174;28;20534;-60
2023/12/19 11:25:26;;;;;;;10.80;9.70;;;;;;;;;;5070372;28;20530;-60
2023/12/19 11:27:54;;;;;;;14.10;10.30;;;;;;;;;;5071745;28;20540;-60
2023/12/19 11:30:32;;;;;;;12.10;10.80;;;;;;;;;;5051825;28;20531;-60
2023/12/19 11:32:59;;;;;;;13.60;10.93;;;;;;;;;;5051789;28;20454;-60
2023/12/19 11:35:28;;;;;;;14.03;11.17;;;;;;;;;;5052254;28;20868;-60
2023/12/19 11:38:21;;;;;;;15.70;11.03;;;;;;;;;;5051465;28;20484;-60
2023/12/19 11:40:49;;;;;;;13.67;10.20;;;;;;;;;;5051982;28;20851;-60
2023/12/19 11:43:36;;;;;;;12.07;10.17;;;;;;;;;;5051989;28;20991;-60
2023/12/19 11:46:18;;;;;;;13.37;11.60;;;;;;;;;;5056216;28;20543;-60
2023/12/19 11:48:46;;;;;;;12.97;11.33;;;;;;;;;;5072874;28;20481;-60
2023/12/19 11:51:14;;;;;;;15.23;12.70;;;;;;;;;;5075029;28;20931;-60
2023/12/19 11:53:41;;;;;;;13.33;11.90;;;;;;;;;;5072168;28;20445;-60
2023/12/19 11:56:11;;;;;;;12.63;10.93;;;;;;;;;;5075037;28;20986;-60
2023/12/19 11:58:38;;;;;;;16.40;11.20;;;;;;;;;;5075647;28;20440;-60
2023/12/19 12:01:08;;;;;;;12.77;10.40;;;;;;;;;;5075442;28;20469;-60
2023/12/19 12:03:37;;;;;;;11.63;10.40;;;;;;;;;;5075515;28;20842;-60
2023/12/19 12:06:04;;;;;;;14.00;12.10;;;;;;;;;;5075374;28;21010;-61
2023/12/19 12:08:31;;;;;;;12.53;10.70;;;;;;;;;;5075014;28;20483;-54
2023/12/19 12:11:02;;;;;;;14.10;12.23;;;;;;;;;;5074774;28;20548;-61
2023/12/19 12:13:31;;;;;;;13.87;11.17;;;;;;;;;;5075532;28;20544;-60
2023/12/19 12:15:59;;;;;;;11.83;10.50;;;;;;;;;;5075394;28;20538;-60
2023/12/19 12:18:26;;;;;;;14.90;12.17;;;;;;;;;;5075235;28;20494;-61
2023/12/19 12:20:55;;;;;;;13.60;12.20;;;;;;;;;;5075337;28;20498;-59
2023/12/19 12:23:22;;;;;;;12.77;10.97;;;;;;;;;;5075098;28;20530;-61
2023/12/19 12:25:55;;;;;;;11.80;10.60;;;;;;;;;;5074982;28;20447;-61
2023/12/19 12:28:26;;;;;;;14.20;10.80;;;;;;;;;;5074860;28;20486;-61
2023/12/19 12:30:55;;;;;;;13.37;12.03;;;;;;;;;;5075047;28;20451;-61
2023/12/19 12:33:23;;;;;;;13.37;12.00;;;;;;;;;;5074792;28;20518;-62
2023/12/19 12:35:50;;;;;;;13.03;10.03;;;;;;;;;;5074975;28;20860;-60
2023/12/19 12:38:18;;;;;;;12.43;11.10;;;;;;;;;;5074484;28;20444;-61
2023/12/19 12:40:54;;;;;;;15.70;10.97;;;;;;;;;;5074581;28;20977;-61
2023/12/19 12:43:28;;;;;;;11.63;10.43;;;;;;;;;;5074497;28;20522;-60
2023/12/19 12:46:10;;;;;;;10.50;9.47;;;;;;;;;;5074452;28;20443;-61
2023/12/19 12:48:37;;;;;;;12.00;10.63;;;;;;;;;;5074431;28;20478;-60
2023/12/19 12:51:05;;;;;;;12.13;10.33;;;;;;;;;;5074669;28;20867;-61
2023/12/19 12:53:32;;;;;;;11.13;9.97;;;;;;;;;;5074353;28;20452;-61
2023/12/19 12:56:06;;;;;;;10.88;9.75;;;;;;;;;;5074079;28;20988;-61
2023/12/19 12:58:33;;;;;;;12.10;9.60;;;;;;;;;;5073351;28;20186;-61
2023/12/19 13:01:00;;;;;;;15.47;11.67;;;;;;;;;;5074404;28;20806;-60
2023/12/19 13:03:29;;;;;;;11.10;9.70;;;;;;;;;;5074331;28;20439;-61
2023/12/19 13:06:00;;;;;;;10.17;9.13;;;;;;;;;;5074028;28;21009;-58
2023/12/19 13:08:26;;;;;;;13.10;11.20;;;;;;;;;;5074098;28;20483;-61
2023/12/19 13:10:53;;;;;;;11.60;10.40;;;;;;;;;;5073959;28;20543;-59
2023/12/19 13:13:20;;;;;;;11.87;10.20;;;;;;;;;;5074157;28;20448;-60
2023/12/19 13:15:47;;;;;;;14.20;10.90;;;;;;;;;;5073982;28;20450;-61
2023/12/19 13:18:14;;;;;;;11.50;10.30;;;;;;;;;;5073802;28;20479;-60
2023/12/19 13:20:42;;;;;;;10.87;9.80;;;;;;;;;;5073891;28;20447;-62
2023/12/19 13:23:10;;;;;;;13.53;12.17;;;;;;;;;;5073713;28;21002;-62
2023/12/19 13:25:38;;;;;;;12.80;11.27;;;;;;;;;;5073607;28;20534;-62
2023/12/19 13:28:05;;;;;;;12.20;10.53;;;;;;;;;;5073939;28;20540;-62
2023/12/19 13:30:32;;;;;;;11.00;10.00;;;;;;;;;;5073741;28;20566;-62
2023/12/19 13:32:59;;;;;;;12.70;10.33;;;;;;;;;;5073255;28;20534;-62
2023/12/19 13:35:26;;;;;;;11.77;10.40;;;;;;;;;;5073487;28;20443;-61
2023/12/19 13:37:54;;;;;;;11.37;10.17;;;;;;;;;;5073500;28;20830;-62
2023/12/19 13:40:21;;;;;;;10.63;9.60;;;;;;;;;;5073726;28;20451;-61
2023/12/19 13:42:49;;;;;;;10.80;9.60;;;;;;;;;;5073560;28;20447;-61
2023/12/19 13:45:16;;;;;;;10.97;9.70;;;;;;;;;;5073390;28;20854;-61
2023/12/19 13:47:43;;;;;;;12.27;10.90;;;;;;;;;;5073502;28;20554;-62
2023/12/19 13:50:10;;;;;;;11.00;9.87;;;;;;;;;;5073250;28;20538;-64
2023/12/19 13:52:38;;;;;;;11.07;9.63;;;;;;;;;;5072997;28;20538;-62
2023/12/19 13:55:07;;;;;;;12.17;10.93;;;;;;;;;;5073277;28;20475;-63
2023/12/19 13:57:34;;;;;;;10.37;9.27;;;;;;;;;;5073113;28;20442;-64
2023/12/19 14:00:02;;;;;;;11.23;10.07;;;;;;;;;;5073193;28;20534;-62
2023/12/19 14:02:29;;;;;;;13.40;9.77;;;;;;;;;;5073103;28;20534;-61
2023/12/19 14:04:56;;;;;;;12.80;9.10;;;;;;;;;;5072973;28;20536;-65
2023/12/19 14:07:23;;;;;;;9.87;8.67;;;;;;;;;;5072963;28;20534;-61
2023/12/19 14:09:50;;;;;;;10.43;9.10;;;;;;;;;;5072823;28;20614;-62
2023/12/19 14:12:18;;;;;;;9.60;8.70;;;;;;;;;;5072858;28;20444;-62
2023/12/19 14:14:45;;;;;;;10.03;8.77;;;;;;;;;;5072989;28;20475;-61
2023/12/19 14:17:12;;;;;;;9.90;8.90;;;;;;;;;;5072773;28;20534;-60
2023/12/19 14:19:39;;;;;;;10.37;8.93;;;;;;;;;;5072590;28;20483;-62
2023/12/19 14:22:06;;;;;;;12.17;10.23;;;;;;;;;;5073184;28;20565;-61
2023/12/19 14:24:33;;;;;;;12.83;11.30;;;;;;;;;;5072015;28;20458;-61
2023/12/19 14:27:00;;;;;;;11.40;10.20;;;;;;;;;;5072673;28;20942;-61
2023/12/19 14:29:28;;;;;;;10.63;9.53;;;;;;;;;;5072723;28;20483;-60
2023/12/19 14:31:55;;;;;;;12.03;9.83;;;;;;;;;;5072805;28;20542;-60
2023/12/19 14:34:22;;;;;;;9.90;8.87;;;;;;;;;;5072679;28;20479;-61
2023/12/19 14:36:49;;;;;;;10.23;9.10;;;;;;;;;;5072535;28;20440;-61
2023/12/19 14:39:16;;;;;;;10.90;8.57;;;;;;;;;;5072250;28;20879;-61